< Typhoon 201215 2012 Season Typhoon 201217 >
Typhoon 201216 (SANBA)
General InformationTrack Information on Google MapsDetailed Wind InformationAccess Analytics MapList of All Images || NewsDisaster Info.WeblogTrackbackTyphoon FrontTwiphoonTyphoon Now!Typhoon ImaginationResourceGoogle EarthGE AnimationAtom FeedGeoJSON
Detalied Best Track (Time Zone = UTC)
Year Month Day Hour Lat. Long. Pressure (hPa) Wind (kt) Class Image Chart
2012 9 10 00 8.7 134.7 1008 0 2 Image Chart
2012 9 10 06 8.9 134.6 1004 0 2 Image Chart
2012 9 10 12 9.2 134.5 1006 0 2 Image Chart
2012 9 10 18 9.6 134.3 1004 0 2 Image Chart
2012 9 11 00 10.0 134.1 1002 35 3 Image Chart
2012 9 11 06 10.7 133.8 1000 35 3 Image Chart
2012 9 11 12 11.4 133.3 998 40 3 Image Chart
2012 9 11 18 11.9 132.4 996 40 3 Image Chart
2012 9 12 00 12.5 131.6 992 45 3 Image Chart
2012 9 12 06 13.0 131.1 985 55 4 Image Chart
2012 9 12 12 13.7 130.6 965 70 5 Image Chart
2012 9 12 18 14.0 130.1 955 75 5 Image Chart
2012 9 13 00 14.8 129.8 945 85 5 Image Chart
2012 9 13 06 15.6 129.5 930 95 5 Image Chart
2012 9 13 12 16.3 129.6 910 105 5 Image Chart
2012 9 13 18 17.2 129.7 900 110 5 Image Chart
2012 9 14 00 18.1 129.7 900 110 5 Image Chart
2012 9 14 06 19.1 129.8 900 110 5 Image Chart
2012 9 14 12 20.2 129.8 915 100 5 Image Chart
2012 9 14 18 21.4 129.5 915 100 5 Image Chart
2012 9 15 00 22.3 129.1 920 100 5 Image Chart
2012 9 15 06 23.4 128.8 920 100 5 Image Chart
2012 9 15 09 24.0 128.7 920 100 5 Image Chart
2012 9 15 12 24.5 128.5 925 95 5 Image Chart
2012 9 15 15 25.1 128.2 925 95 5 Image Chart
2012 9 15 18 25.6 128.2 935 90 5 Image Chart
2012 9 15 21 26.4 128.2 935 90 5 Image Chart
2012 9 15 22 26.6 128.2 935 90 5 Image Chart
2012 9 16 00 27.0 128.1 935 90 5 Image Chart
2012 9 16 03 27.8 128.2 935 90 5 Image Chart
2012 9 16 06 28.8 128.1 935 90 5 Image Chart
2012 9 16 09 29.8 128.1 935 90 5 Image Chart
2012 9 16 12 30.6 127.9 935 90 5 Image Chart
2012 9 16 15 31.4 127.8 940 85 5 Image Chart
2012 9 16 18 32.2 127.9 940 85 5 Image Chart
2012 9 16 21 33.0 127.8 940 85 5 Image Chart
2012 9 17 00 34.0 127.9 955 75 5 Image Chart
2012 9 17 03 34.9 128.0 965 70 5 Image Chart
2012 9 17 06 36.3 128.5 980 55 4 Image Chart
2012 9 17 12 38.6 129.6 990 45 3 Image Chart
2012 9 17 18 40.9 130.6 990 45 3 Image Chart
2012 9 18 00 43.6 132.9 992 0 6 Image Chart
2012 9 18 06 45.8 134.6 996 0 6 Image Chart
2012 9 18 12 47.4 134.2 1000 0 6 Image Chart
2012 9 18 18 48.0 135.1 1002 0 6 Image Chart
Japan Meteorological Agency Best Track Data | Correction Date : 2012-10-16
< Typhoon 201215 2012 Season Typhoon 201217 >

Help